Time;durP1;ratioP1;P1;durP2;ratioP2;P2;SDS_P1;SDS_P2;PMS_P1;PMS_P2;Temp;Humidity;BMP_temperature;BMP_pressure;BME280_temperature;BME280_humidity;BME280_pressure;Samples;Min_cycle;Max_cycle;Signal;HPM_P1;HPM_P2
2022/06/03 00:02:09;;;;;;;;;;;18.10;92.30;;;;;;5004668;28;19932;-80
2022/06/03 00:04:46;;;;;;;;;;;18.00;92.30;;;;;;5013492;28;20401;-79
2022/06/03 00:07:23;;;;;;;;;;;18.00;92.30;;;;;;5029925;28;19932;-79
2022/06/03 00:09:57;;;;;;;;;;;18.00;92.30;;;;;;5027845;28;19929;-79
2022/06/03 00:12:33;;;;;;;;;;;18.00;92.30;;;;;;5014060;28;20016;-79
2022/06/03 00:15:07;;;;;;;;;;;17.90;92.20;;;;;;5008718;28;19925;-79
2022/06/03 00:17:54;;;;;;;;;;;17.90;92.20;;;;;;5024094;28;20260;-79
2022/06/03 00:20:29;;;;;;;;;;;17.90;92.30;;;;;;5025206;28;19948;-80
2022/06/03 00:23:07;;;;;;;;;;;17.80;92.20;;;;;;5029123;28;19928;-80
2022/06/03 00:25:46;;;;;;;;;;;17.80;92.30;;;;;;5028220;28;19931;-80
2022/06/03 00:28:20;;;;;;;;;;;17.80;92.30;;;;;;5024834;28;19933;-80
2022/06/03 00:30:52;;;;;;;;;;;17.80;92.30;;;;;;5012239;28;19956;-80
2022/06/03 00:33:40;;;;;;;;;;;17.80;92.30;;;;;;5020953;28;19933;-80
2022/06/03 00:36:16;;;;;;;;;;;17.80;92.30;;;;;;4995659;28;19925;-80
2022/06/03 00:39:00;;;;;;;;;;;17.80;92.40;;;;;;5024878;28;19925;-79
2022/06/03 00:41:32;;;;;;;;;;;17.70;92.30;;;;;;5023202;28;19937;-79
2022/06/03 00:44:05;;;;;;;;;;;17.70;92.30;;;;;;5024741;28;19925;-79
2022/06/03 00:46:40;;;;;;;;;;;17.60;92.30;;;;;;5028419;28;20012;-79
2022/06/03 00:49:21;;;;;;;;;;;17.70;92.30;;;;;;5028242;28;19971;-79
2022/06/03 00:51:57;;;;;;;;;;;17.60;92.30;;;;;;5017233;28;19925;-80
2022/06/03 00:54:35;;;;;;;;;;;17.60;92.40;;;;;;5029641;28;19925;-79
2022/06/03 00:57:07;;;;;;;;;;;17.60;92.40;;;;;;5027842;28;19941;-79
2022/06/03 00:59:58;;;;;;;;;;;17.60;92.30;;;;;;5023282;28;19933;-79
2022/06/03 01:02:42;;;;;;;;;;;17.60;92.30;;;;;;4988355;28;19961;-80
2022/06/03 01:05:16;;;;;;;;;;;17.50;92.30;;;;;;5024284;28;19929;-80
2022/06/03 01:07:52;;;;;;;;;;;17.50;92.20;;;;;;5026688;28;20024;-80
2022/06/03 01:10:26;;;;;;;;;;;17.50;92.30;;;;;;5022138;28;19959;-79
2022/06/03 01:13:06;;;;;;;;;;;17.50;92.30;;;;;;5009585;28;20311;-79
2022/06/03 01:15:36;;;;;;;;;;;17.40;92.30;;;;;;5025777;28;19991;-79
2022/06/03 01:18:15;;;;;;;;;;;17.40;92.30;;;;;;5024055;28;19933;-79
2022/06/03 01:20:46;;;;;;;;;;;17.40;92.30;;;;;;5008282;28;19969;-79
2022/06/03 01:23:37;;;;;;;;;;;17.40;92.30;;;;;;5007276;28;19932;-80
2022/06/03 01:26:17;;;;;;;;;;;17.30;92.20;;;;;;5003376;28;20363;-79
2022/06/03 01:29:03;;;;;;;;;;;17.30;92.20;;;;;;5021259;28;19933;-79
2022/06/03 01:31:48;;;;;;;;;;;17.30;92.30;;;;;;5026649;28;19925;-80
2022/06/03 01:34:23;;;;;;;;;;;17.30;92.30;;;;;;5010686;28;19925;-80
2022/06/03 01:36:59;;;;;;;;;;;17.30;92.30;;;;;;5006269;28;19925;-80
2022/06/03 01:39:32;;;;;;;;;;;17.20;92.30;;;;;;5028661;28;19925;-79
2022/06/03 01:42:18;;;;;;;;;;;17.20;92.30;;;;;;5020987;28;19964;-79
2022/06/03 01:44:58;;;;;;;;;;;17.20;92.30;;;;;;5021955;28;19974;-79
2022/06/03 01:47:51;;;;;;;;;;;17.20;92.20;;;;;;5027253;28;20463;-80
2022/06/03 01:50:27;;;;;;;;;;;17.20;92.30;;;;;;5026394;28;19929;-80
2022/06/03 01:53:06;;;;;;;;;;;17.10;92.20;;;;;;5011801;28;19932;-80
2022/06/03 01:55:57;;;;;;;;;;;17.10;92.20;;;;;;5024963;28;19937;-80
2022/06/03 01:58:38;;;;;;;;;;;17.10;92.20;;;;;;5025463;28;19929;-79
2022/06/03 02:01:10;;;;;;;;;;;17.00;92.20;;;;;;5015032;28;19940;-79
2022/06/03 02:03:53;;;;;;;;;;;17.00;92.20;;;;;;5039363;22;19931;-76
2022/06/03 02:06:38;;;;;;;;;;;17.00;92.30;;;;;;5037482;28;20346;-77
2022/06/03 02:09:21;;;;;;;;;;;17.00;92.30;;;;;;5025571;28;19932;-76
2022/06/03 02:11:53;;;;;;;;;;;17.00;92.30;;;;;;5025564;28;19957;-77
2022/06/03 02:14:29;;;;;;;;;;;16.90;92.20;;;;;;5040754;28;20683;-78
2022/06/03 02:17:12;;;;;;;;;;;16.90;92.20;;;;;;5040834;28;19936;-78
2022/06/03 02:19:55;;;;;;;;;;;16.90;92.20;;;;;;5045975;28;19925;-76
2022/06/03 02:22:42;;;;;;;;;;;16.90;92.20;;;;;;5040216;28;19935;-76
2022/06/03 02:25:22;;;;;;;;;;;16.90;92.20;;;;;;5041636;28;19925;-77
2022/06/03 02:28:01;;;;;;;;;;;16.80;92.20;;;;;;5045829;28;20019;-76
2022/06/03 02:30:36;;;;;;;;;;;16.80;92.10;;;;;;5040259;28;20015;-76
2022/06/03 02:33:22;;;;;;;;;;;16.80;92.20;;;;;;5041762;28;20016;-76
2022/06/03 02:36:07;;;;;;;;;;;16.80;92.20;;;;;;5042604;28;19925;-76
2022/06/03 02:38:43;;;;;;;;;;;16.80;92.20;;;;;;5040416;28;19925;-76
2022/06/03 02:41:27;;;;;;;;;;;16.70;92.20;;;;;;5025047;28;20026;-76
2022/06/03 02:44:09;;;;;;;;;;;16.70;92.20;;;;;;5043035;28;19939;-76
2022/06/03 02:46:53;;;;;;;;;;;16.70;92.20;;;;;;5040547;28;19959;-76
2022/06/03 02:49:33;;;;;;;;;;;16.70;92.20;;;;;;5047301;28;19925;-76
2022/06/03 02:52:33;;;;;;;;;;;16.70;92.20;;;;;;5023863;28;20387;-76
2022/06/03 02:55:30;;;;;;;;;;;16.60;92.10;;;;;;5000299;28;20008;-77
2022/06/03 02:58:06;;;;;;;;;;;16.60;92.10;;;;;;4938746;28;19926;-76
2022/06/03 03:00:37;;;;;;;;;;;16.60;92.10;;;;;;5026582;28;20002;-76
2022/06/03 03:03:19;;;;;;;;;;;16.60;92.10;;;;;;5042241;28;19933;-76
2022/06/03 03:11:13;;;;;;;;;;;16.50;92.00;;;;;;5040416;28;19933;-76
2022/06/03 03:14:01;;;;;;;;;;;16.50;92.10;;;;;;5046591;28;20071;-76
2022/06/03 03:16:43;;;;;;;;;;;16.40;92.00;;;;;;5016665;28;20499;-76
2022/06/03 03:19:19;;;;;;;;;;;16.40;92.00;;;;;;5021534;28;19933;-76
2022/06/03 03:22:07;;;;;;;;;;;16.40;92.10;;;;;;5025403;28;20672;-76
2022/06/03 03:24:55;;;;;;;;;;;16.40;92.10;;;;;;4992421;28;19952;-76
2022/06/03 03:27:29;;;;;;;;;;;16.40;92.10;;;;;;5023600;28;20014;-76
2022/06/03 03:30:11;;;;;;;;;;;16.40;92.10;;;;;;5022865;28;19940;-76
2022/06/03 03:32:56;;;;;;;;;;;16.30;92.10;;;;;;5023486;28;19929;-76
2022/06/03 03:35:33;;;;;;;;;;;16.30;92.00;;;;;;5023476;28;19925;-76
2022/06/03 03:38:17;;;;;;;;;;;16.30;92.00;;;;;;5024393;28;20288;-76
2022/06/03 03:41:18;;;;;;;;;;;16.30;92.00;;;;;;5024593;28;19940;-77
2022/06/03 03:44:15;;;;;;;;;;;16.20;92.00;;;;;;5008079;28;20380;-76
2022/06/03 03:47:00;;;;;;;;;;;16.20;92.10;;;;;;5025388;28;20047;-77
2022/06/03 03:49:50;;;;;;;;;;;16.20;92.10;;;;;;5026517;28;20342;-78
2022/06/03 03:52:26;;;;;;;;;;;16.20;92.10;;;;;;5024394;28;20290;-77
2022/06/03 03:55:07;;;;;;;;;;;16.20;92.10;;;;;;5021376;28;19925;-78
2022/06/03 03:57:52;;;;;;;;;;;16.20;92.10;;;;;;5022409;28;19925;-76
2022/06/03 04:00:25;;;;;;;;;;;16.10;92.10;;;;;;5004825;28;19955;-76
2022/06/03 04:03:12;;;;;;;;;;;16.10;92.10;;;;;;5009163;28;19940;-78
2022/06/03 04:05:50;;;;;;;;;;;16.10;92.10;;;;;;5002672;28;19932;-78
2022/06/03 04:08:33;;;;;;;;;;;16.00;92.10;;;;;;5025648;28;19933;-77
2022/06/03 04:11:15;;;;;;;;;;;16.00;92.10;;;;;;5028213;28;19933;-76
2022/06/03 04:13:50;;;;;;;;;;;16.00;92.10;;;;;;5024006;28;19925;-77
2022/06/03 04:16:29;;;;;;;;;;;16.00;92.10;;;;;;5015762;28;19939;-77
2022/06/03 04:19:14;;;;;;;;;;;16.00;92.10;;;;;;5024033;28;19925;-76
2022/06/03 04:21:56;;;;;;;;;;;16.00;92.10;;;;;;5016877;28;19925;-77
2022/06/03 04:24:36;;;;;;;;;;;16.00;92.10;;;;;;5011945;28;20380;-76
2022/06/03 04:27:20;;;;;;;;;;;15.90;92.00;;;;;;5014762;28;19933;-76
2022/06/03 04:30:17;;;;;;;;;;;15.90;92.00;;;;;;5023496;28;19931;-77
2022/06/03 04:33:14;;;;;;;;;;;15.90;92.10;;;;;;5023189;28;19925;-77
2022/06/03 04:35:59;;;;;;;;;;;15.90;92.10;;;;;;5020902;28;20437;-77
2022/06/03 04:38:59;;;;;;;;;;;15.90;92.10;;;;;;5022427;28;20299;-77
2022/06/03 04:41:45;;;;;;;;;;;15.80;92.00;;;;;;4938131;28;19927;-76
2022/06/03 04:44:42;;;;;;;;;;;15.80;92.10;;;;;;4953627;28;19926;-77
2022/06/03 04:47:32;;;;;;;;;;;15.80;92.10;;;;;;4966933;28;19929;-76
2022/06/03 04:50:14;;;;;;;;;;;15.80;92.10;;;;;;4984087;28;20432;-75
2022/06/03 04:53:01;;;;;;;;;;;15.80;92.20;;;;;;5019243;28;19933;-76
2022/06/03 04:55:48;;;;;;;;;;;15.80;92.30;;;;;;5019241;28;20354;-75
2022/06/03 04:58:36;;;;;;;;;;;15.80;92.50;;;;;;5023775;28;19928;-75
2022/06/03 05:01:20;;;;;;;;;;;15.70;92.40;;;;;;5003211;28;19937;-79
2022/06/03 05:04:05;;;;;;;;;;;15.70;92.40;;;;;;4994289;28;19932;-75
2022/06/03 05:06:59;;;;;;;;;;;15.70;92.50;;;;;;5023552;28;19933;-78
2022/06/03 05:09:44;;;;;;;;;;;15.70;92.50;;;;;;5014016;28;20453;-77
2022/06/03 05:12:31;;;;;;;;;;;15.70;92.40;;;;;;5015533;28;19925;-76
2022/06/03 05:15:11;;;;;;;;;;;15.70;92.40;;;;;;5018571;28;19964;-77
2022/06/03 05:17:52;;;;;;;;;;;15.70;92.50;;;;;;5021785;28;19929;-77
2022/06/03 05:20:25;;;;;;;;;;;15.60;92.70;;;;;;5020189;28;20031;-75
2022/06/03 05:23:06;;;;;;;;;;;15.50;92.90;;;;;;5021809;28;19925;-76
2022/06/03 05:25:52;;;;;;;;;;;15.50;93.20;;;;;;4997102;28;20383;-75
2022/06/03 05:28:39;;;;;;;;;;;15.40;93.20;;;;;;5028254;28;19936;-75
2022/06/03 05:31:23;;;;;;;;;;;15.40;93.60;;;;;;5027264;28;20475;-76
2022/06/03 05:34:02;;;;;;;;;;;15.40;93.50;;;;;;5012880;28;19933;-76
2022/06/03 05:36:50;;;;;;;;;;;15.40;93.40;;;;;;5020676;28;20383;-77
2022/06/03 05:39:47;;;;;;;;;;;15.40;93.50;;;;;;5028671;28;19944;-77
2022/06/03 05:42:30;;;;;;;;;;;15.40;93.60;;;;;;5021568;28;20000;-77
2022/06/03 05:45:08;;;;;;;;;;;15.40;93.90;;;;;;5019951;28;19933;-77
2022/06/03 05:47:41;;;;;;;;;;;15.50;94.00;;;;;;5023819;28;19925;-76
2022/06/03 05:50:09;;;;;;;;;;;15.50;94.10;;;;;;5028899;28;19972;-78
2022/06/03 05:52:40;;;;;;;;;;;15.60;94.20;;;;;;5006039;28;19925;-77
2022/06/03 05:55:23;;;;;;;;;;;15.60;94.30;;;;;;5024182;28;19934;-78
2022/06/03 05:57:55;;;;;;;;;;;15.60;94.40;;;;;;5028937;28;19925;-78
2022/06/03 06:00:37;;;;;;;;;;;15.70;94.60;;;;;;5029481;28;20299;-78
2022/06/03 06:03:13;;;;;;;;;;;15.70;94.70;;;;;;5018015;28;19932;-78
2022/06/03 06:05:48;;;;;;;;;;;15.80;94.70;;;;;;5030383;28;19929;-78
2022/06/03 06:08:20;;;;;;;;;;;15.80;94.70;;;;;;5031626;28;21404;-78
2022/06/03 06:10:52;;;;;;;;;;;15.80;94.70;;;;;;5027115;28;19924;-78
2022/06/03 06:13:23;;;;;;;;;;;15.80;94.70;;;;;;5025484;28;20019;-77
2022/06/03 06:16:08;;;;;;;;;;;15.80;94.70;;;;;;5027242;28;19991;-78
2022/06/03 06:18:43;;;;;;;;;;;15.80;94.80;;;;;;5031769;28;20970;-77
2022/06/03 06:21:21;;;;;;;;;;;15.80;94.80;;;;;;5018124;28;19925;-78
2022/06/03 06:23:53;;;;;;;;;;;15.90;94.90;;;;;;5025589;28;20491;-77
2022/06/03 06:26:32;;;;;;;;;;;15.90;94.90;;;;;;5025506;28;19933;-77
2022/06/03 06:29:05;;;;;;;;;;;15.90;95.00;;;;;;5007523;28;19933;-77
2022/06/03 06:31:46;;;;;;;;;;;16.00;95.00;;;;;;5021429;28;19925;-77
2022/06/03 06:34:23;;;;;;;;;;;16.00;95.10;;;;;;5020258;28;19933;-78
2022/06/03 06:36:57;;;;;;;;;;;16.00;95.10;;;;;;5026257;28;19929;-78
2022/06/03 06:39:41;;;;;;;;;;;16.00;95.30;;;;;;5007923;28;19925;-78
2022/06/03 06:42:15;;;;;;;;;;;16.10;95.40;;;;;;5011749;28;19925;-78
2022/06/03 06:44:49;;;;;;;;;;;16.10;95.40;;;;;;5006780;28;20395;-76
2022/06/03 06:47:20;;;;;;;;;;;16.10;95.50;;;;;;5014250;28;19933;-78
2022/06/03 06:49:52;;;;;;;;;;;16.20;95.80;;;;;;5007186;28;20391;-77
2022/06/03 06:52:43;;;;;;;;;;;16.20;95.50;;;;;;5012733;28;20563;-77
2022/06/03 06:55:15;;;;;;;;;;;16.20;95.50;;;;;;5008195;28;19933;-77
2022/06/03 06:57:45;;;;;;;;;;;16.30;95.60;;;;;;4999936;28;19944;-78
2022/06/03 07:00:16;;;;;;;;;;;16.30;95.60;;;;;;5011349;28;20421;-77
2022/06/03 07:02:48;;;;;;;;;;;16.30;95.60;;;;;;5015131;28;20472;-79
2022/06/03 07:05:18;;;;;;;;;;;16.40;95.70;;;;;;5003138;28;19925;-78
2022/06/03 07:07:48;;;;;;;;;;;16.40;95.70;;;;;;5013037;28;19977;-77
2022/06/03 07:10:19;;;;;;;;;;;16.50;95.80;;;;;;5014247;28;20465;-78
2022/06/03 07:12:52;;;;;;;;;;;16.50;95.90;;;;;;5018469;28;19925;-78
2022/06/03 07:15:22;;;;;;;;;;;16.50;96.00;;;;;;5018483;28;19933;-78
2022/06/03 07:20:43;;;;;;;;;;;16.50;95.80;;;;;;5019334;28;19932;-78
2022/06/03 07:23:14;;;;;;;;;;;16.60;95.90;;;;;;5015111;28;19933;-78
2022/06/03 07:25:44;;;;;;;;;;;16.60;96.00;;;;;;5013064;28;19977;-78
2022/06/03 07:28:19;;;;;;;;;;;16.70;96.00;;;;;;5010786;28;19969;-77
2022/06/03 07:30:49;;;;;;;;;;;16.80;96.00;;;;;;5009086;28;20325;-78
2022/06/03 07:33:18;;;;;;;;;;;16.80;96.20;;;;;;5015067;28;19964;-77
2022/06/03 07:35:46;;;;;;;;;;;16.80;96.10;;;;;;5012204;28;19933;-77
2022/06/03 07:38:18;;;;;;;;;;;16.80;96.10;;;;;;5011162;28;19925;-78
2022/06/03 07:40:48;;;;;;;;;;;16.90;96.20;;;;;;5007358;28;20099;-78
2022/06/03 07:43:18;;;;;;;;;;;16.90;96.30;;;;;;5013642;28;19929;-78
2022/06/03 07:45:48;;;;;;;;;;;16.90;96.20;;;;;;5016071;28;19925;-78
2022/06/03 07:48:18;;;;;;;;;;;16.90;96.20;;;;;;4992178;28;19932;-77
2022/06/03 07:50:50;;;;;;;;;;;17.00;96.20;;;;;;4990225;28;19926;-78
2022/06/03 07:53:19;;;;;;;;;;;17.00;96.30;;;;;;5007599;28;19939;-78
2022/06/03 07:55:51;;;;;;;;;;;17.00;96.50;;;;;;5009774;28;20587;-78
2022/06/03 07:58:25;;;;;;;;;;;17.10;96.60;;;;;;5008696;28;21190;-78
2022/06/03 08:00:52;;;;;;;;;;;17.10;96.70;;;;;;5010561;28;19926;-78
2022/06/03 08:03:21;;;;;;;;;;;17.10;96.70;;;;;;5083703;22;19956;-80
2022/06/03 08:05:50;;;;;;;;;;;17.10;96.70;;;;;;5039285;28;19978;-77
2022/06/03 08:11:08;;;;;;;;;;;17.20;96.90;;;;;;5034933;28;19932;-81
2022/06/03 08:13:47;;;;;;;;;;;17.30;97.00;;;;;;5035003;28;19925;-81
2022/06/03 08:16:17;;;;;;;;;;;17.30;97.00;;;;;;5045589;28;20428;-81
2022/06/03 08:18:44;;;;;;;;;;;17.30;96.90;;;;;;5030669;28;20027;-81
2022/06/03 08:21:14;;;;;;;;;;;17.30;96.90;;;;;;5035637;28;19933;-78
2022/06/03 08:23:41;;;;;;;;;;;17.30;97.00;;;;;;5040094;28;19991;-79
2022/06/03 08:26:10;;;;;;;;;;;17.40;97.10;;;;;;5019699;28;19994;-80
2022/06/03 08:28:39;;;;;;;;;;;17.40;97.10;;;;;;5039927;28;19933;-81
2022/06/03 08:31:08;;;;;;;;;;;17.40;97.00;;;;;;5033599;28;19933;-77
2022/06/03 08:33:39;;;;;;;;;;;17.40;97.10;;;;;;5032669;28;19952;-79
2022/06/03 08:36:06;;;;;;;;;;;17.40;97.40;;;;;;5039984;28;19940;-81
2022/06/03 08:38:36;;;;;;;;;;;17.50;97.20;;;;;;5033753;28;20350;-81
2022/06/03 08:41:08;;;;;;;;;;;17.50;97.10;;;;;;5026343;28;20306;-81
2022/06/03 08:43:40;;;;;;;;;;;17.50;97.40;;;;;;5042010;28;20014;-81
2022/06/03 08:46:12;;;;;;;;;;;17.50;97.10;;;;;;5017346;28;19932;-81
2022/06/03 08:48:41;;;;;;;;;;;17.50;97.10;;;;;;5034283;28;19932;-81
2022/06/03 08:51:11;;;;;;;;;;;17.60;97.10;;;;;;5028164;28;19933;-81
2022/06/03 08:53:42;;;;;;;;;;;17.60;97.30;;;;;;5036137;28;19940;-81
2022/06/03 08:56:10;;;;;;;;;;;17.60;97.20;;;;;;5042065;28;19932;-81
2022/06/03 08:58:41;;;;;;;;;;;17.60;97.40;;;;;;5021709;28;20020;-82
2022/06/03 09:01:14;;;;;;;;;;;17.60;97.40;;;;;;5037839;28;19940;-81
2022/06/03 09:03:45;;;;;;;;;;;17.70;97.50;;;;;;5033441;28;19929;-81
2022/06/03 09:06:15;;;;;;;;;;;17.70;97.40;;;;;;5042365;28;19933;-82
2022/06/03 09:08:44;;;;;;;;;;;17.70;97.50;;;;;;5046766;28;19986;-82
2022/06/03 09:11:14;;;;;;;;;;;17.80;97.40;;;;;;5019460;28;19932;-81
2022/06/03 09:13:47;;;;;;;;;;;17.80;97.60;;;;;;5039162;28;21853;-79
2022/06/03 09:16:18;;;;;;;;;;;17.80;97.60;;;;;;5039112;28;19940;-81
2022/06/03 09:18:47;;;;;;;;;;;17.80;97.60;;;;;;5041869;28;20068;-81
2022/06/03 09:21:15;;;;;;;;;;;17.90;97.60;;;;;;5037805;28;20537;-81
2022/06/03 09:23:44;;;;;;;;;;;17.90;97.70;;;;;;5034190;28;20300;-81
2022/06/03 09:26:21;;;;;;;;;;;17.90;97.80;;;;;;5033916;28;19925;-81
2022/06/03 09:28:48;;;;;;;;;;;18.00;97.90;;;;;;5038665;28;20406;-81
2022/06/03 09:31:16;;;;;;;;;;;18.00;98.00;;;;;;5035046;28;19933;-80
2022/06/03 09:33:45;;;;;;;;;;;18.10;98.00;;;;;;5039803;28;20000;-81
2022/06/03 09:36:17;;;;;;;;;;;18.10;98.10;;;;;;5047154;28;19932;-81
2022/06/03 09:38:47;;;;;;;;;;;18.10;98.10;;;;;;5022531;28;19986;-81
2022/06/03 09:41:14;;;;;;;;;;;18.20;98.50;;;;;;5040384;28;19933;-81
2022/06/03 09:43:44;;;;;;;;;;;18.20;98.20;;;;;;5043267;28;19931;-81
2022/06/03 09:46:12;;;;;;;;;;;18.20;98.50;;;;;;5024789;28;19925;-79
2022/06/03 09:48:42;;;;;;;;;;;18.50;99.90;;;;;;5035405;28;19924;-80
2022/06/03 09:51:10;;;;;;;;;;;18.90;99.90;;;;;;5016911;28;19998;-80
2022/06/03 09:53:42;;;;;;;;;;;19.20;99.90;;;;;;5036101;28;20427;-80
2022/06/03 09:56:15;;;;;;;;;;;19.50;99.90;;;;;;5044245;28;19936;-80
2022/06/03 09:58:43;;;;;;;;;;;19.70;99.30;;;;;;5033330;28;19925;-80
2022/06/03 10:01:10;;;;;;;;;;;19.80;99.40;;;;;;5035114;28;20370;-81
2022/06/03 10:03:37;;;;;;;;;;;19.90;99.40;;;;;;5032009;28;19960;-80
2022/06/03 10:06:42;;;;;;;;;;;20.00;98.60;;;;;;5044165;28;19924;-79
2022/06/03 10:14:24;;;;;;;;;;;20.30;97.70;;;;;;5014345;28;19981;-80
2022/06/03 10:16:50;;;;;;;;;;;20.40;97.80;;;;;;5044011;28;19936;-79
2022/06/03 10:19:17;;;;;;;;;;;20.50;97.80;;;;;;5027547;28;19928;-79
2022/06/03 10:21:52;;;;;;;;;;;20.60;97.80;;;;;;5041915;28;19929;-79
2022/06/03 10:24:21;;;;;;;;;;;20.70;98.30;;;;;;5043464;28;20284;-80
2022/06/03 10:26:51;;;;;;;;;;;20.90;97.70;;;;;;5043471;28;19924;-82
2022/06/03 10:29:19;;;;;;;;;;;21.00;98.20;;;;;;5020804;28;19939;-79
2022/06/03 10:31:50;;;;;;;;;;;20.90;97.60;;;;;;5041328;28;19937;-80
2022/06/03 10:34:17;;;;;;;;;;;;;;;;;;5041934;28;19952;-81
2022/06/03 10:36:46;;;;;;;;;;;21.20;96.80;;;;;;5040802;28;20031;-82
2022/06/03 10:39:16;;;;;;;;;;;21.30;96.90;;;;;;5042319;28;20310;-83
2022/06/03 10:41:44;;;;;;;;;;;21.50;97.20;;;;;;5042382;28;19925;-82
2022/06/03 10:44:13;;;;;;;;;;;21.30;97.20;;;;;;5018989;28;21318;-83
2022/06/03 10:46:52;;;;;;;;;;;21.50;97.40;;;;;;5041557;28;19957;-79
2022/06/03 10:49:19;;;;;;;;;;;21.70;96.20;;;;;;5022717;28;19932;-85
2022/06/03 11:02:48;;;;;;;;;;;21.90;94.90;;;;;;5042374;28;19936;-84
2022/06/03 11:05:21;;;;;;;;;;;21.90;95.60;;;;;;5044295;28;19925;-84
2022/06/03 11:07:59;;;;;;;;;;;22.10;96.60;;;;;;5020791;28;19955;-82
2022/06/03 11:10:32;;;;;;;;;;;22.20;96.90;;;;;;5021986;28;19955;-78
2022/06/03 11:13:00;;;;;;;;;;;22.20;96.20;;;;;;5041808;28;19925;-81
2022/06/03 11:15:31;;;;;;;;;;;22.30;96.40;;;;;;5041252;28;20636;-81
2022/06/03 11:17:58;;;;;;;;;;;22.40;97.10;;;;;;5042872;28;19925;-81
2022/06/03 11:20:34;;;;;;;;;;;22.50;96.90;;;;;;5036111;28;19944;-82
2022/06/03 11:23:01;;;;;;;;;;;22.60;97.00;;;;;;5042753;28;19924;-84
2022/06/03 11:25:29;;;;;;;;;;;22.70;97.00;;;;;;5019708;28;19925;-80
2022/06/03 11:27:59;;;;;;;;;;;22.90;95.80;;;;;;5035989;28;20438;-81
2022/06/03 11:30:32;;;;;;;;;;;22.90;95.80;;;;;;5040389;28;20499;-78
2022/06/03 11:33:02;;;;;;;;;;;23.00;96.20;;;;;;5039176;28;19925;-81
2022/06/03 11:35:31;;;;;;;;;;;23.00;96.30;;;;;;5028941;28;20041;-79
2022/06/03 11:38:00;;;;;;;;;;;22.90;95.80;;;;;;5036256;28;19943;-80
2022/06/03 11:40:31;;;;;;;;;;;22.90;96.20;;;;;;5020860;28;19980;-79
2022/06/03 11:43:02;;;;;;;;;;;23.00;96.30;;;;;;5035820;28;19956;-79
2022/06/03 11:45:34;;;;;;;;;;;23.10;96.60;;;;;;5032706;28;19930;-80
2022/06/03 11:48:03;;;;;;;;;;;23.30;96.00;;;;;;5027079;28;19925;-81
2022/06/03 11:50:32;;;;;;;;;;;23.30;95.60;;;;;;5024745;28;19925;-83
2022/06/03 11:52:59;;;;;;;;;;;23.20;95.90;;;;;;5023882;28;20359;-83
2022/06/03 11:55:27;;;;;;;;;;;23.30;96.10;;;;;;5022493;28;20019;-82
2022/06/03 11:57:57;;;;;;;;;;;23.50;95.40;;;;;;5048323;28;20002;-82
2022/06/03 12:00:27;;;;;;;;;;;23.50;95.50;;;;;;5041110;28;20670;-83
2022/06/03 12:03:00;;;;;;;;;;;23.60;95.60;;;;;;5023095;28;20023;-79
2022/06/03 12:05:30;;;;;;;;;;;23.70;95.30;;;;;;5043237;28;19955;-81
2022/06/03 12:08:02;;;;;;;;;;;23.70;94.90;;;;;;5043721;28;20423;-81
2022/06/03 12:10:40;;;;;;;;;;;23.80;95.00;;;;;;5035541;28;19933;-83
2022/06/03 12:13:15;;;;;;;;;;;23.90;94.80;;;;;;5034017;28;19933;-82
2022/06/03 12:15:48;;;;;;;;;;;23.90;94.50;;;;;;5024127;28;19961;-81
2022/06/03 12:18:33;;;;;;;;;;;23.90;94.20;;;;;;5046236;28;19929;-82
2022/06/03 12:21:01;;;;;;;;;;;23.90;94.40;;;;;;5044347;28;19931;-81
2022/06/03 12:24:00;;;;;;;;;;;23.90;94.10;;;;;;5047829;28;19924;-81
2022/06/03 12:26:31;;;;;;;;;;;24.00;94.00;;;;;;4980655;28;19926;-81
2022/06/03 12:29:01;;;;;;;;;;;24.00;94.50;;;;;;5028546;28;19929;-81
2022/06/03 12:31:36;;;;;;;;;;;24.10;94.50;;;;;;5009589;28;19983;-81
2022/06/03 12:34:11;;;;;;;;;;;24.10;94.70;;;;;;5030590;28;20209;-80
2022/06/03 12:36:39;;;;;;;;;;;24.10;94.60;;;;;;5027160;28;19929;-81
2022/06/03 12:39:27;;;;;;;;;;;24.10;93.90;;;;;;5042410;28;19980;-78
2022/06/03 12:42:12;;;;;;;;;;;24.10;94.30;;;;;;5042041;28;19932;-79
2022/06/03 12:44:41;;;;;;;;;;;24.00;94.60;;;;;;5041245;28;19928;-79
2022/06/03 12:47:23;;;;;;;;;;;24.10;94.60;;;;;;5042192;28;20383;-79
2022/06/03 12:49:52;;;;;;;;;;;24.00;94.70;;;;;;5039539;28;19931;-79
2022/06/03 12:52:40;;;;;;;;;;;23.80;94.80;;;;;;5047444;28;19932;-79
2022/06/03 12:55:09;;;;;;;;;;;23.80;94.90;;;;;;5042279;28;19933;-79
2022/06/03 12:57:39;;;;;;;;;;;23.80;94.80;;;;;;5036727;28;20551;-79
2022/06/03 13:00:12;;;;;;;;;;;23.80;94.80;;;;;;5016501;28;19929;-79
2022/06/03 13:02:48;;;;;;;;;;;23.80;94.50;;;;;;5042638;28;20317;-79
2022/06/03 13:05:28;;;;;;;;;;;23.70;94.50;;;;;;5039316;28;19944;-80
2022/06/03 13:08:00;;;;;;;;;;;23.70;94.70;;;;;;5037890;28;19959;-79
2022/06/03 13:10:31;;;;;;;;;;;23.90;94.70;;;;;;5040152;28;19924;-82
2022/06/03 13:13:13;;;;;;;;;;;24.00;94.90;;;;;;5044553;28;19924;-81
2022/06/03 13:15:48;;;;;;;;;;;23.90;95.00;;;;;;5042494;28;19925;-80
2022/06/03 13:18:30;;;;;;;;;;;23.80;95.20;;;;;;5033577;28;19936;-80
2022/06/03 13:21:11;;;;;;;;;;;23.70;95.00;;;;;;5035064;28;19939;-84
2022/06/03 13:23:53;;;;;;;;;;;23.70;95.30;;;;;;5043919;28;19971;-81
2022/06/03 13:26:39;;;;;;;;;;;23.70;95.50;;;;;;5041629;28;19928;-79
2022/06/03 13:29:08;;;;;;;;;;;23.70;95.70;;;;;;5018655;28;19932;-79
2022/06/03 13:31:54;;;;;;;;;;;23.70;95.80;;;;;;5015974;28;20392;-82
2022/06/03 13:34:31;;;;;;;;;;;23.70;95.80;;;;;;5034047;28;19929;-79
2022/06/03 13:37:31;;;;;;;;;;;23.70;96.00;;;;;;5035820;28;19971;-79
2022/06/03 13:40:07;;;;;;;;;;;23.70;95.90;;;;;;5036783;28;19951;-79
2022/06/03 13:43:04;;;;;;;;;;;23.60;96.00;;;;;;5037400;28;20287;-79
2022/06/03 13:45:46;;;;;;;;;;;23.60;96.00;;;;;;5033631;28;19924;-79
2022/06/03 13:48:16;;;;;;;;;;;23.60;96.10;;;;;;5030423;28;19935;-78
2022/06/03 13:50:44;;;;;;;;;;;23.60;96.20;;;;;;5034047;28;19993;-79
2022/06/03 13:53:12;;;;;;;;;;;23.60;96.20;;;;;;5033812;28;19932;-78
2022/06/03 13:55:50;;;;;;;;;;;23.60;96.20;;;;;;5019781;28;19932;-78
2022/06/03 13:58:18;;;;;;;;;;;23.60;96.20;;;;;;5037208;28;19943;-79
2022/06/03 14:00:54;;;;;;;;;;;23.60;96.30;;;;;;5040599;28;20512;-79
2022/06/03 14:03:23;;;;;;;;;;;23.70;96.30;;;;;;5115494;22;20393;-79
2022/06/03 14:05:57;;;;;;;;;;;23.60;96.20;;;;;;5059168;28;20167;-78
2022/06/03 14:08:27;;;;;;;;;;;23.60;96.40;;;;;;5034772;28;19971;-78
2022/06/03 14:10:58;;;;;;;;;;;23.60;96.40;;;;;;5054029;28;19925;-78
2022/06/03 14:13:33;;;;;;;;;;;23.60;96.50;;;;;;5050190;28;20018;-78
2022/06/03 14:16:02;;;;;;;;;;;23.60;96.50;;;;;;5031464;28;19931;-78
2022/06/03 14:18:49;;;;;;;;;;;23.60;96.40;;;;;;5030836;28;20399;-77
2022/06/03 14:21:18;;;;;;;;;;;23.60;96.50;;;;;;5039293;28;19968;-78
2022/06/03 14:23:45;;;;;;;;;;;23.60;96.40;;;;;;5044933;28;19978;-77
2022/06/03 14:26:17;;;;;;;;;;;23.50;96.40;;;;;;5051194;28;20013;-77
2022/06/03 14:28:49;;;;;;;;;;;23.50;96.30;;;;;;5056893;28;19932;-78
2022/06/03 14:31:22;;;;;;;;;;;23.50;96.40;;;;;;5053112;28;19934;-77
2022/06/03 14:33:50;;;;;;;;;;;23.50;96.40;;;;;;5042490;28;19929;-78
2022/06/03 14:36:19;;;;;;;;;;;23.50;96.40;;;;;;5028866;28;19932;-78
2022/06/03 14:38:48;;;;;;;;;;;23.50;96.40;;;;;;5045247;28;19932;-76
2022/06/03 14:41:19;;;;;;;;;;;23.50;96.60;;;;;;5043964;28;19932;-78
2022/06/03 14:43:46;;;;;;;;;;;23.40;96.70;;;;;;5043673;28;19950;-78
2022/06/03 14:46:15;;;;;;;;;;;23.40;96.80;;;;;;5042361;28;19987;-77
2022/06/03 14:48:46;;;;;;;;;;;23.40;96.90;;;;;;5049285;28;19928;-76
2022/06/03 14:51:15;;;;;;;;;;;23.40;96.90;;;;;;5044797;28;20070;-76
2022/06/03 14:53:46;;;;;;;;;;;23.40;96.90;;;;;;5031707;28;20003;-77
2022/06/03 14:56:18;;;;;;;;;;;23.40;97.30;;;;;;5057002;28;19932;-79
2022/06/03 14:58:47;;;;;;;;;;;23.40;97.10;;;;;;5052601;28;20428;-79
2022/06/03 15:01:26;;;;;;;;;;;23.30;97.10;;;;;;5026323;28;19943;-79
2022/06/03 15:03:54;;;;;;;;;;;23.30;97.20;;;;;;5050981;28;20399;-79
2022/06/03 15:06:24;;;;;;;;;;;23.30;97.20;;;;;;5055349;28;20398;-82
2022/06/03 15:08:53;;;;;;;;;;;23.30;97.30;;;;;;5049282;28;19974;-80
2022/06/03 15:11:25;;;;;;;;;;;23.30;97.30;;;;;;5050331;28;20019;-82
2022/06/03 15:13:54;;;;;;;;;;;23.30;97.20;;;;;;5036665;28;19990;-79
2022/06/03 15:16:21;;;;;;;;;;;23.30;97.10;;;;;;5035874;28;19977;-80
2022/06/03 15:18:49;;;;;;;;;;;23.20;97.10;;;;;;5040805;28;20066;-83
2022/06/03 15:21:20;;;;;;;;;;;23.20;97.10;;;;;;5039096;28;20035;-81
2022/06/03 15:23:49;;;;;;;;;;;23.20;97.20;;;;;;5034684;28;19951;-81
2022/06/03 15:26:17;;;;;;;;;;;23.20;97.30;;;;;;5030132;28;19928;-82
2022/06/03 15:28:49;;;;;;;;;;;23.20;97.30;;;;;;5044992;28;19939;-81
2022/06/03 15:31:18;;;;;;;;;;;23.20;97.40;;;;;;5054277;28;20482;-80
2022/06/03 15:33:49;;;;;;;;;;;23.10;97.40;;;;;;5051200;28;19929;-80
2022/06/03 15:36:18;;;;;;;;;;;23.10;97.50;;;;;;5051712;28;20355;-81